Time;durP1;ratioP1;P1;durP2;ratioP2;P2;SDS_P1;SDS_P2;PMS_P1;PMS_P2;Temp;Humidity;BMP_temperature;BMP_pressure;BME280_temperature;BME280_humidity;BME280_pressure;Samples;Min_cycle;Max_cycle;Signal;HPM_P1;HPM_P2
2022/09/09 00:00:59;;;;;;;4.97;3.53;;;19.10;96.40;;;;;;10458187;28;20574;-81
2022/09/09 00:06:11;;;;;;;2.97;2.77;;;19.10;95.60;;;;;;10458120;28;20220;-80
2022/09/09 00:11:18;;;;;;;4.03;2.97;;;19.10;96.20;;;;;;10446202;28;20653;-80
2022/09/09 00:16:23;;;;;;;3.30;3.00;;;19.10;95.60;;;;;;10443645;28;20649;-80
2022/09/09 00:21:33;;;;;;;3.23;2.90;;;19.00;95.90;;;;;;10469698;28;20228;-79
2022/09/09 00:26:40;;;;;;;5.23;2.87;;;19.00;96.00;;;;;;10428337;28;20324;-79
2022/09/09 00:31:42;;;;;;;4.10;2.67;;;19.10;95.50;;;;;;10432753;28;20288;-80
2022/09/09 00:36:49;;;;;;;2.60;2.50;;;19.10;95.50;;;;;;10455434;28;20630;-80
2022/09/09 00:42:08;;;;;;;2.70;2.50;;;19.10;95.40;;;;;;10458391;28;20229;-80
2022/09/09 00:47:35;;;;;;;3.13;2.83;;;19.10;94.80;;;;;;10452142;28;20350;-79
2022/09/09 00:52:47;;;;;;;2.70;2.50;;;19.20;94.70;;;;;;10459353;28;20228;-79
2022/09/09 00:57:52;;;;;;;3.00;2.67;;;19.20;94.80;;;;;;10465930;28;20213;-78
2022/09/09 01:03:17;;;;;;;3.50;2.50;;;19.30;94.80;;;;;;10447992;28;20210;-79
2022/09/09 01:08:38;;;;;;;2.80;2.70;;;19.40;93.20;;;;;;10451073;28;20236;-79
2022/09/09 01:13:45;;;;;;;2.80;2.60;;;19.40;93.60;;;;;;10456950;28;20196;-80
2022/09/09 01:18:53;;;;;;;2.63;2.50;;;19.50;93.40;;;;;;10447232;28;20241;-79
2022/09/09 01:24:15;;;;;;;3.47;2.70;;;19.50;92.80;;;;;;10463267;28;20205;-80
2022/09/09 01:29:31;;;;;;;3.10;2.60;;;19.50;92.50;;;;;;10483348;28;20688;-79
2022/09/09 01:34:39;;;;;;;3.67;3.23;;;19.50;92.60;;;;;;10457060;28;20689;-79
2022/09/09 01:39:45;;;;;;;3.40;3.17;;;19.50;92.50;;;;;;10466068;28;20197;-79
2022/09/09 01:44:54;;;;;;;3.43;2.47;;;19.50;93.00;;;;;;10465946;28;20573;-79
2022/09/09 01:49:56;;;;;;;2.60;2.40;;;19.60;92.20;;;;;;10460758;28;20233;-79
2022/09/09 01:55:02;;;;;;;2.60;2.50;;;19.60;92.50;;;;;;10459682;28;20221;-79
2022/09/09 02:00:14;;;;;;;2.73;2.53;;;19.60;93.00;;;;;;10456571;28;20189;-79
2022/09/09 02:05:31;;;;;;;3.20;2.90;;;19.60;92.20;;;;;;10462675;28;20289;-79
2022/09/09 02:10:42;;;;;;;3.00;2.70;;;19.50;92.40;;;;;;10459379;28;20229;-79
2022/09/09 02:16:00;;;;;;;3.07;2.77;;;19.50;92.70;;;;;;10464169;28;20229;-79
2022/09/09 02:21:04;;;;;;;2.83;2.70;;;19.40;92.50;;;;;;10468177;28;20285;-78
2022/09/09 02:26:08;;;;;;;3.00;2.80;;;19.40;92.80;;;;;;10464562;28;20603;-80
2022/09/09 02:31:14;;;;;;;3.03;2.83;;;19.40;92.70;;;;;;10461571;28;20197;-79
2022/09/09 02:36:18;;;;;;;3.27;2.97;;;19.40;92.70;;;;;;10467336;28;20244;-79
2022/09/09 02:41:24;;;;;;;3.30;3.00;;;19.40;93.50;;;;;;10459588;28;20209;-79
2022/09/09 02:46:44;;;;;;;3.20;3.00;;;19.30;93.90;;;;;;10465815;28;20217;-79
2022/09/09 02:51:55;;;;;;;3.90;3.40;;;19.30;93.50;;;;;;10465305;28;20213;-78
2022/09/09 02:57:02;;;;;;;3.33;3.13;;;19.20;93.90;;;;;;10467934;28;20343;-79
2022/09/09 03:02:12;;;;;;;3.73;3.50;;;19.10;94.20;;;;;;10461683;28;20217;-79
2022/09/09 03:07:17;;;;;;;3.63;3.43;;;19.10;94.90;;;;;;10459076;28;20583;-79
2022/09/09 03:12:23;;;;;;;2.90;2.80;;;19.00;94.20;;;;;;10458684;28;20603;-79
2022/09/09 03:17:27;;;;;;;3.03;2.70;;;19.00;94.80;;;;;;10458120;28;20300;-79
2022/09/09 03:22:31;;;;;;;3.50;3.30;;;19.00;93.80;;;;;;10440376;28;20207;-77
2022/09/09 03:27:35;;;;;;;3.93;3.73;;;19.00;93.90;;;;;;10453380;28;20256;-77
2022/09/09 03:32:40;;;;;;;3.40;3.20;;;18.90;93.50;;;;;;10457019;28;20206;-77
2022/09/09 03:37:42;;;;;;;3.50;3.20;;;18.90;94.00;;;;;;10460290;28;20681;-79
2022/09/09 03:42:47;;;;;;;3.63;3.53;;;18.90;94.10;;;;;;10458253;28;20205;-78
2022/09/09 03:47:51;;;;;;;2.60;2.50;;;18.90;93.80;;;;;;10434802;28;20225;-77
2022/09/09 03:52:53;;;;;;;3.47;3.37;;;18.90;93.20;;;;;;10449505;28;20202;-80
2022/09/09 03:57:57;;;;;;;4.03;3.73;;;18.90;93.80;;;;;;10449096;28;20296;-79
2022/09/09 04:03:03;;;;;;;3.90;3.73;;;18.90;93.40;;;;;;10455249;28;20201;-79
2022/09/09 04:08:05;;;;;;;4.10;3.80;;;19.00;93.40;;;;;;10457923;28;20228;-79
2022/09/09 04:13:07;;;;;;;3.00;2.70;;;19.10;93.40;;;;;;10456649;28;20233;-78
2022/09/09 04:18:11;;;;;;;4.27;3.97;;;19.00;93.80;;;;;;10449589;28;20217;-77
2022/09/09 04:23:13;;;;;;;4.20;3.90;;;19.00;93.60;;;;;;10453305;28;20223;-79
2022/09/09 04:28:16;;;;;;;4.27;3.93;;;19.00;93.10;;;;;;10441574;28;20275;-79
2022/09/09 04:33:20;;;;;;;4.10;3.90;;;18.90;93.40;;;;;;10453253;28;20560;-78
2022/09/09 04:38:25;;;;;;;4.10;3.80;;;18.90;93.20;;;;;;10444588;28;20638;-79
2022/09/09 04:43:30;;;;;;;3.83;3.57;;;18.90;93.60;;;;;;10429608;28;20201;-79
2022/09/09 04:48:35;;;;;;;3.77;3.47;;;18.80;93.80;;;;;;10443823;28;20221;-77
2022/09/09 04:53:40;;;;;;;3.90;3.80;;;18.90;94.10;;;;;;10442283;28;20660;-78
2022/09/09 04:58:43;;;;;;;3.00;2.80;;;18.90;94.30;;;;;;10436807;28;20248;-78
2022/09/09 05:03:47;;;;;;;4.17;3.97;;;18.80;94.50;;;;;;10436008;28;20201;-78
2022/09/09 05:08:54;;;;;;;3.73;3.53;;;18.80;94.50;;;;;;10403427;28;20221;-79
2022/09/09 05:14:01;;;;;;;3.50;3.20;;;18.80;94.50;;;;;;10437661;28;20202;-79
2022/09/09 05:19:07;;;;;;;4.07;3.63;;;18.80;94.70;;;;;;10428874;28;20544;-79
2022/09/09 05:24:27;;;;;;;4.50;4.20;;;18.70;95.10;;;;;;10451775;28;20231;-79
2022/09/09 05:29:33;;;;;;;3.97;3.60;;;18.80;94.70;;;;;;10452917;28;20249;-78
2022/09/09 05:34:39;;;;;;;4.63;4.23;;;18.90;94.80;;;;;;10436460;28;20224;-79
2022/09/09 05:39:41;;;;;;;4.40;4.10;;;19.00;94.80;;;;;;10428861;28;20695;-79
2022/09/09 05:44:44;;;;;;;4.60;4.20;;;19.00;95.10;;;;;;10453390;28;20750;-78
2022/09/09 05:49:49;;;;;;;4.10;3.77;;;19.10;94.70;;;;;;10458277;28;20233;-80
2022/09/09 05:54:51;;;;;;;7.07;3.97;;;19.20;94.50;;;;;;10444746;28;20724;-79
2022/09/09 05:59:54;;;;;;;4.03;3.70;;;19.30;94.50;;;;;;10456137;28;20378;-80
2022/09/09 06:04:57;;;;;;;4.03;3.83;;;19.30;94.00;;;;;;10473512;28;20239;-78
2022/09/09 06:10:00;;;;;;;5.03;4.20;;;19.40;94.80;;;;;;10436181;28;20221;-80
2022/09/09 06:15:03;;;;;;;4.50;4.20;;;19.50;94.30;;;;;;10458467;28;20217;-79
2022/09/09 06:20:09;;;;;;;3.57;3.47;;;19.60;94.40;;;;;;10458594;28;20189;-80
2022/09/09 06:25:12;;;;;;;4.83;4.20;;;19.60;94.40;;;;;;10469873;28;20248;-80
2022/09/09 06:30:17;;;;;;;3.97;3.77;;;19.70;94.00;;;;;;10468045;28;20224;-78
2022/09/09 06:35:20;;;;;;;4.10;3.90;;;19.80;94.50;;;;;;10466790;28;20312;-80
2022/09/09 06:40:23;;;;;;;4.07;3.73;;;19.90;93.80;;;;;;10465250;28;20193;-79
2022/09/09 06:45:25;;;;;;;4.03;3.83;;;19.90;94.10;;;;;;10455929;28;20693;-79
2022/09/09 06:50:32;;;;;;;3.80;3.50;;;19.90;94.40;;;;;;10454530;28;20232;-79
2022/09/09 06:55:35;;;;;;;4.40;4.00;;;20.00;94.10;;;;;;10467631;28;20274;-78
2022/09/09 07:00:37;;;;;;;4.47;4.27;;;20.00;94.60;;;;;;10464652;28;20616;-79
2022/09/09 07:05:41;;;;;;;5.90;3.90;;;20.10;94.20;;;;;;10464693;28;20225;-80
2022/09/09 07:10:44;;;;;;;4.93;4.63;;;20.10;94.50;;;;;;10464586;28;20232;-78
2022/09/09 07:15:46;;;;;;;3.77;3.57;;;20.30;94.40;;;;;;10471732;28;20232;-79
2022/09/09 07:20:56;;;;;;;4.43;4.13;;;20.40;94.50;;;;;;10469642;28;20268;-79
2022/09/09 07:26:00;;;;;;;4.23;3.93;;;20.60;93.70;;;;;;10475406;28;20724;-79
2022/09/09 07:31:04;;;;;;;4.63;4.30;;;20.70;93.90;;;;;;10471563;28;20224;-79
2022/09/09 07:36:11;;;;;;;4.87;4.20;;;20.80;94.10;;;;;;10470135;28;20233;-79
2022/09/09 07:41:17;;;;;;;4.30;3.90;;;20.90;93.70;;;;;;10449125;28;20323;-79
2022/09/09 07:46:22;;;;;;;4.97;4.00;;;21.00;93.70;;;;;;10464745;28;20251;-79
2022/09/09 07:51:30;;;;;;;3.97;3.70;;;21.20;93.90;;;;;;10464272;28;20303;-80
2022/09/09 07:56:33;;;;;;;3.67;3.47;;;21.50;93.60;;;;;;10463206;28;20220;-79
2022/09/09 08:01:38;;;;;;;4.00;3.73;;;21.60;93.20;;;;;;10467370;28;20201;-80
2022/09/09 08:06:46;;;;;;;4.90;4.40;;;21.40;93.60;;;;;;10469368;28;20228;-80
2022/09/09 08:11:49;;;;;;;6.10;3.37;;;21.40;92.90;;;;;;10458765;28;20566;-79
2022/09/09 08:16:53;;;;;;;3.83;3.50;;;21.30;93.40;;;;;;10455139;28;20263;-78
2022/09/09 08:22:01;;;;;;;4.27;3.80;;;21.20;93.50;;;;;;10437279;28;20369;-78
2022/09/09 08:27:04;;;;;;;3.73;3.50;;;21.20;92.90;;;;;;10454375;28;20253;-79
2022/09/09 08:32:08;;;;;;;3.90;3.40;;;21.20;93.90;;;;;;10458775;28;20201;-79
2022/09/09 08:37:13;;;;;;;2.60;2.40;;;21.10;93.60;;;;;;10456232;28;20271;-80
2022/09/09 08:42:38;;;;;;;3.80;3.60;;;21.20;94.60;;;;;;10445684;28;20205;-79
2022/09/09 08:47:55;;;;;;;4.30;4.00;;;21.40;94.00;;;;;;10451991;28;20248;-79
2022/09/09 08:53:05;;;;;;;4.63;4.23;;;21.60;93.80;;;;;;10457003;28;20215;-79
2022/09/09 08:58:14;;;;;;;3.20;2.93;;;21.70;93.10;;;;;;10459044;28;20219;-79
2022/09/09 09:03:28;;;;;;;5.73;3.50;;;21.70;93.10;;;;;;10443295;28;20698;-79
2022/09/09 09:08:40;;;;;;;4.47;4.17;;;21.70;91.60;;;;;;10466100;22;20255;-80
2022/09/09 09:13:48;;;;;;;3.67;3.47;;;21.70;91.20;;;;;;10437479;28;20197;-80
2022/09/09 09:18:52;;;;;;;4.03;3.17;;;21.70;90.60;;;;;;10431203;28;20231;-79
2022/09/09 09:23:58;;;;;;;3.83;3.50;;;21.90;91.30;;;;;;10432060;28;20751;-79
2022/09/09 09:29:09;;;;;;;3.90;2.63;;;22.00;91.10;;;;;;10417571;28;20584;-79
2022/09/09 09:34:11;;;;;;;7.77;4.20;;;22.10;94.30;;;;;;10419489;28;20229;-78
2022/09/09 09:39:26;;;;;;;4.03;3.83;;;21.90;95.10;;;;;;10426526;28;20624;-79
2022/09/09 09:44:33;;;;;;;4.33;4.13;;;21.50;96.10;;;;;;10448800;28;20225;-79
2022/09/09 09:49:52;;;;;;;4.43;4.17;;;21.10;97.90;;;;;;10437348;28;20217;-80
2022/09/09 09:54:59;;;;;;;4.20;3.80;;;21.10;97.30;;;;;;10460998;28;20213;-80
2022/09/09 10:00:13;;;;;;;3.17;3.07;;;21.20;98.30;;;;;;10434375;28;20217;-79
2022/09/09 10:05:18;;;;;;;4.50;3.30;;;21.50;97.00;;;;;;10453234;28;20225;-79
2022/09/09 10:10:35;;;;;;;3.57;3.33;;;21.60;97.00;;;;;;10446346;28;20727;-79
2022/09/09 10:15:45;;;;;;;4.63;4.23;;;21.70;96.90;;;;;;10457207;28;20671;-80
2022/09/09 10:20:58;;;;;;;3.60;3.40;;;21.60;95.60;;;;;;10432786;28;20192;-80
2022/09/09 10:26:24;;;;;;;3.90;3.70;;;21.60;95.60;;;;;;10428253;28;20779;-79
2022/09/09 10:31:38;;;;;;;3.93;3.73;;;21.60;95.00;;;;;;10448378;28;20255;-80
2022/09/09 10:36:46;;;;;;;5.30;4.53;;;21.60;96.20;;;;;;10446905;28;20316;-79
2022/09/09 10:42:02;;;;;;;4.13;3.77;;;21.60;95.20;;;;;;10448213;28;20197;-79
2022/09/09 10:47:33;;;;;;;10.97;9.83;;;21.60;96.60;;;;;;10451270;28;20228;-79
2022/09/09 10:52:44;;;;;;;4.13;3.80;;;21.70;95.40;;;;;;10445907;28;20207;-80
2022/09/09 10:57:52;;;;;;;4.17;3.97;;;21.80;96.20;;;;;;10444796;28;20267;-80
2022/09/09 11:02:58;;;;;;;3.97;3.70;;;22.00;96.20;;;;;;10445805;28;20658;-80
2022/09/09 11:08:04;;;;;;;4.60;4.30;;;22.40;94.60;;;;;;10436885;28;20225;-79
2022/09/09 11:13:17;;;;;;;3.50;3.27;;;22.50;95.40;;;;;;10450930;28;20208;-80
2022/09/09 11:18:22;;;;;;;4.53;4.20;;;22.50;94.30;;;;;;10445977;28;20220;-80
2022/09/09 11:23:28;;;;;;;4.17;3.47;;;22.70;93.60;;;;;;10425699;28;20206;-80
2022/09/09 11:28:47;;;;;;;2.53;2.40;;;23.00;92.10;;;;;;10441040;28;20229;-80
2022/09/09 11:34:18;;;;;;;4.03;3.73;;;23.00;87.60;;;;;;10456511;28;20211;-80
2022/09/09 11:39:49;;;;;;;5.53;5.07;;;23.00;87.30;;;;;;10446782;28;20197;-80
2022/09/09 11:44:54;;;;;;;2.97;2.30;;;22.90;88.90;;;;;;10431560;28;20222;-80
2022/09/09 11:50:08;;;;;;;4.40;4.10;;;23.00;87.60;;;;;;10451952;28;20248;-80
2022/09/09 11:55:12;;;;;;;3.53;3.33;;;23.00;87.80;;;;;;10443634;28;20224;-80
2022/09/09 12:00:34;;;;;;;3.80;3.47;;;23.00;87.60;;;;;;10449916;28;20201;-79
2022/09/09 12:05:40;;;;;;;3.67;3.10;;;23.00;87.90;;;;;;10427219;28;20275;-79
2022/09/09 12:10:42;;;;;;;2.77;2.57;;;22.80;87.80;;;;;;10446083;28;20225;-80
2022/09/09 12:15:51;;;;;;;3.47;3.23;;;22.90;83.10;;;;;;10442799;28;20240;-80
2022/09/09 12:21:02;;;;;;;3.13;3.03;;;22.80;86.70;;;;;;10438162;28;20222;-79
2022/09/09 12:26:22;;;;;;;3.20;3.10;;;22.80;85.10;;;;;;10445696;28;20600;-80
2022/09/09 12:31:34;;;;;;;3.50;3.30;;;22.70;87.40;;;;;;10443104;28;20704;-80
2022/09/09 12:36:37;;;;;;;3.07;2.87;;;22.60;86.20;;;;;;10447561;28;20229;-80
2022/09/09 12:41:39;;;;;;;3.70;3.30;;;22.40;83.20;;;;;;10446485;28;20200;-79
2022/09/09 12:46:46;;;;;;;3.17;3.00;;;22.30;81.00;;;;;;10452519;28;20263;-80
2022/09/09 12:51:48;;;;;;;3.53;3.33;;;22.20;82.10;;;;;;10435931;28;20256;-80
2022/09/09 12:56:51;;;;;;;4.33;4.03;;;22.30;84.10;;;;;;10437323;28;20225;-80
2022/09/09 13:01:58;;;;;;;3.43;3.30;;;22.50;83.70;;;;;;10438947;28;20205;-81
2022/09/09 13:07:11;;;;;;;3.70;3.40;;;22.70;83.50;;;;;;10442710;28;20256;-80
2022/09/09 13:12:16;;;;;;;4.07;3.53;;;22.80;85.20;;;;;;10436820;28;20775;-81
2022/09/09 13:17:22;;;;;;;3.90;3.70;;;22.70;83.10;;;;;;10435774;28;20267;-79
2022/09/09 13:22:32;;;;;;;3.43;3.23;;;22.70;82.70;;;;;;10444251;28;20194;-80
2022/09/09 13:27:38;;;;;;;3.63;3.43;;;22.70;83.70;;;;;;10449688;28;20237;-80
2022/09/09 13:32:41;;;;;;;3.67;3.37;;;22.90;83.20;;;;;;10438063;28;20594;-80
2022/09/09 13:37:44;;;;;;;3.70;3.50;;;23.20;83.40;;;;;;10448494;28;20230;-80
2022/09/09 13:42:46;;;;;;;3.83;3.63;;;23.30;84.20;;;;;;10454175;28;20681;-80
2022/09/09 13:47:52;;;;;;;3.50;3.40;;;23.30;80.90;;;;;;10453036;28;20225;-80
2022/09/09 13:52:57;;;;;;;3.80;3.60;;;23.10;80.60;;;;;;10453897;28;20223;-80
2022/09/09 13:58:01;;;;;;;4.23;3.93;;;23.10;77.80;;;;;;10432673;28;20287;-80
2022/09/09 14:03:04;;;;;;;3.50;3.20;;;23.10;80.30;;;;;;10440436;28;20257;-80
2022/09/09 14:08:07;;;;;;;4.60;4.30;;;23.20;81.00;;;;;;10439828;28;20620;-79
2022/09/09 14:13:10;;;;;;;3.87;3.67;;;23.40;78.30;;;;;;10415969;28;20274;-80
2022/09/09 14:18:14;;;;;;;3.50;3.40;;;23.30;78.40;;;;;;10426870;28;20229;-80
2022/09/09 14:23:16;;;;;;;4.10;3.90;;;23.20;78.30;;;;;;10428456;28;20207;-80
2022/09/09 14:28:20;;;;;;;4.07;3.70;;;23.00;81.40;;;;;;10442912;28;20297;-78
2022/09/09 14:33:24;;;;;;;3.80;3.60;;;22.90;81.00;;;;;;10415588;28;20209;-79
2022/09/09 14:38:29;;;;;;;2.93;2.80;;;23.00;79.00;;;;;;10415866;28;20222;-79
2022/09/09 14:43:32;;;;;;;3.43;3.23;;;23.00;79.10;;;;;;10429363;28;20209;-79
2022/09/09 14:48:35;;;;;;;3.20;3.10;;;22.90;79.00;;;;;;10425488;28;20232;-80
2022/09/09 14:53:38;;;;;;;2.30;2.20;;;22.90;77.20;;;;;;10445525;28;20212;-80
2022/09/09 14:58:40;;;;;;;3.70;3.50;;;23.30;78.00;;;;;;10443095;28;20213;-79
2022/09/09 15:03:49;;;;;;;3.53;3.40;;;23.40;76.20;;;;;;10449471;28;20259;-79
2022/09/09 15:08:53;;;;;;;3.43;3.13;;;23.30;78.00;;;;;;10455281;28;20701;-80
2022/09/09 15:13:55;;;;;;;3.60;3.50;;;23.20;74.80;;;;;;10416439;28;20678;-81
2022/09/09 15:19:00;;;;;;;2.90;2.80;;;23.10;75.10;;;;;;10431679;28;20599;-80
2022/09/09 15:24:04;;;;;;;3.70;3.40;;;22.90;74.90;;;;;;10420248;28;20618;-79
2022/09/09 15:29:07;;;;;;;3.27;3.17;;;22.70;79.90;;;;;;10432696;28;20245;-80
2022/09/09 15:34:11;;;;;;;3.60;3.40;;;22.40;90.20;;;;;;10443895;28;20702;-79
2022/09/09 15:39:16;;;;;;;3.27;3.07;;;22.20;87.20;;;;;;10416597;28;20581;-80
2022/09/09 15:44:19;;;;;;;5.87;5.40;;;22.20;84.80;;;;;;10431266;28;20205;-80
2022/09/09 15:49:25;;;;;;;2.40;2.20;;;22.30;86.10;;;;;;10433538;28;20658;-79
2022/09/09 15:54:27;;;;;;;3.80;3.60;;;22.20;83.60;;;;;;10441713;28;20217;-81
2022/09/09 15:59:31;;;;;;;3.80;3.60;;;22.10;84.10;;;;;;10429521;28;20198;-80
2022/09/09 16:04:35;;;;;;;4.07;3.50;;;22.10;82.70;;;;;;10438977;28;20299;-80
2022/09/09 16:09:37;;;;;;;1.70;1.60;;;22.00;80.80;;;;;;10425596;28;20613;-80
2022/09/09 16:14:40;;;;;;;3.27;3.07;;;22.00;80.70;;;;;;10448814;28;20217;-80
2022/09/09 16:19:45;;;;;;;2.60;2.50;;;22.00;79.20;;;;;;10438607;28;20193;-80
2022/09/09 16:24:47;;;;;;;3.00;2.80;;;22.00;79.10;;;;;;10449866;28;20221;-80
2022/09/09 16:29:49;;;;;;;3.03;2.73;;;22.00;82.00;;;;;;10458205;28;20629;-80
2022/09/09 16:34:53;;;;;;;2.80;2.70;;;21.90;80.00;;;;;;10460793;28;20225;-80
2022/09/09 16:39:55;;;;;;;3.30;3.03;;;21.90;80.70;;;;;;10461769;28;20228;-79
2022/09/09 16:44:57;;;;;;;6.33;4.00;;;21.90;80.20;;;;;;10448371;28;20248;-80
2022/09/09 16:50:00;;;;;;;2.80;2.60;;;21.90;82.10;;;;;;10456614;28;20224;-80
2022/09/09 16:55:02;;;;;;;3.67;3.47;;;21.90;81.10;;;;;;10435835;28;20289;-81
2022/09/09 17:00:06;;;;;;;3.33;3.23;;;21.80;82.60;;;;;;10455345;28;20201;-80
2022/09/09 17:05:10;;;;;;;3.00;2.80;;;21.80;79.90;;;;;;10435680;28;20233;-81
2022/09/09 17:10:13;;;;;;;3.00;2.90;;;21.70;79.40;;;;;;10452444;28;20216;-81
2022/09/09 17:15:17;;;;;;;2.90;2.50;;;21.50;79.80;;;;;;10438688;28;20222;-81
2022/09/09 17:20:21;;;;;;;4.00;1.97;;;21.40;83.00;;;;;;10441292;28;20209;-81
2022/09/09 17:25:24;;;;;;;3.20;3.10;;;21.30;81.80;;;;;;10429806;28;20701;-81
2022/09/09 17:30:27;;;;;;;3.30;2.90;;;21.20;83.60;;;;;;10419143;28;20248;-80
2022/09/09 17:35:30;;;;;;;2.90;2.80;;;21.00;83.90;;;;;;10446818;28;20248;-80
2022/09/09 17:40:32;;;;;;;3.63;3.43;;;20.90;84.30;;;;;;10441847;28;20193;-80
2022/09/09 17:45:34;;;;;;;3.43;3.23;;;20.90;88.10;;;;;;10419906;28;20217;-80
2022/09/09 17:50:38;;;;;;;4.33;4.03;;;20.80;86.80;;;;;;10423801;28;20263;-80
2022/09/09 17:55:40;;;;;;;3.70;2.90;;;20.70;89.20;;;;;;10436377;28;20236;-80
2022/09/09 18:00:42;;;;;;;8.63;3.03;;;20.70;87.50;;;;;;10438096;28;20193;-81
2022/09/09 18:05:46;;;;;;;3.17;2.93;;;20.70;87.10;;;;;;10413959;28;20233;-81
2022/09/09 18:10:54;;;;;;;3.20;3.00;;;20.60;87.20;;;;;;10440740;28;20212;-80
2022/09/09 18:15:57;;;;;;;2.70;2.50;;;20.50;88.90;;;;;;10424786;28;20293;-80
2022/09/09 18:21:05;;;;;;;2.67;2.50;;;20.50;89.00;;;;;;10442590;28;20262;-81
2022/09/09 18:26:10;;;;;;;3.07;2.93;;;20.50;87.80;;;;;;10434401;28;20248;-81
2022/09/09 18:31:14;;;;;;;2.90;2.70;;;20.40;90.00;;;;;;10446535;28;20267;-81
2022/09/09 18:36:20;;;;;;;3.70;3.27;;;20.40;89.00;;;;;;10429935;28;20220;-81
2022/09/09 18:41:23;;;;;;;3.30;2.67;;;20.40;89.00;;;;;;10441453;28;20224;-81
2022/09/09 18:46:27;;;;;;;2.50;2.40;;;20.40;89.60;;;;;;10437817;28;20283;-81
2022/09/09 18:51:32;;;;;;;2.53;2.33;;;20.40;89.00;;;;;;10440397;28;20213;-81
2022/09/09 18:56:34;;;;;;;2.30;2.20;;;20.40;89.30;;;;;;10433891;28;20247;-82
2022/09/09 19:01:37;;;;;;;2.77;2.60;;;20.40;88.50;;;;;;10437612;28;20201;-81
2022/09/09 19:06:42;;;;;;;2.77;2.67;;;20.40;90.10;;;;;;10425980;28;20237;-81
2022/09/09 19:11:45;;;;;;;3.40;2.57;;;20.40;89.70;;;;;;10458621;28;20251;-81
2022/09/09 19:16:47;;;;;;;2.80;2.70;;;20.40;89.60;;;;;;10436447;28;20312;-80
2022/09/09 19:21:51;;;;;;;2.13;2.03;;;20.40;90.40;;;;;;10442983;28;20208;-81
2022/09/09 19:26:56;;;;;;;2.43;2.33;;;20.40;90.30;;;;;;10456160;28;20224;-81
2022/09/09 19:32:01;;;;;;;3.47;3.17;;;20.30;89.80;;;;;;10446306;28;20308;-82
2022/09/09 19:37:05;;;;;;;3.40;3.20;;;20.30;89.40;;;;;;10469657;28;20253;-81
2022/09/09 19:42:07;;;;;;;2.03;1.93;;;20.30;90.20;;;;;;10437005;28;20230;-81
2022/09/09 19:47:09;;;;;;;4.37;3.23;;;20.20;88.90;;;;;;10429568;28;20296;-81
2022/09/09 19:52:12;;;;;;;2.70;2.50;;;20.20;90.20;;;;;;10450087;28;20217;-81
2022/09/09 19:57:15;;;;;;;3.10;3.00;;;20.10;89.70;;;;;;10477156;28;20221;-81
2022/09/09 20:02:17;;;;;;;2.87;2.70;;;20.00;89.90;;;;;;10466644;28;20189;-81
2022/09/09 20:07:20;;;;;;;2.97;2.87;;;20.00;90.10;;;;;;10421310;28;20360;-81
2022/09/09 20:12:22;;;;;;;3.00;2.60;;;19.90;90.00;;;;;;10433126;28;20284;-79
2022/09/09 20:17:24;;;;;;;2.43;2.33;;;19.90;90.10;;;;;;10435059;28;20225;-82
2022/09/09 20:22:28;;;;;;;2.87;2.67;;;19.90;89.40;;;;;;10455468;28;20284;-81
2022/09/09 20:27:30;;;;;;;2.70;2.60;;;19.80;90.30;;;;;;10459235;28;20228;-81
2022/09/09 20:32:32;;;;;;;2.60;2.50;;;19.70;90.50;;;;;;10403170;28;20261;-81
2022/09/09 20:37:35;;;;;;;2.70;2.50;;;19.70;90.20;;;;;;10438765;28;20287;-82
2022/09/09 20:42:37;;;;;;;2.53;2.30;;;19.70;89.70;;;;;;10430194;28;20285;-82
2022/09/09 20:47:40;;;;;;;2.83;2.63;;;19.60;90.20;;;;;;10405432;28;20218;-83
2022/09/09 20:52:43;;;;;;;4.90;2.97;;;19.60;90.60;;;;;;10419123;28;20229;-82
2022/09/09 20:57:45;;;;;;;3.10;2.90;;;19.60;90.40;;;;;;10407172;28;20265;-82
2022/09/09 21:02:48;;;;;;;2.60;2.40;;;19.60;90.60;;;;;;10427931;28;20205;-83
2022/09/09 21:07:51;;;;;;;3.30;2.90;;;19.50;90.50;;;;;;10431523;22;20607;-81
2022/09/09 21:12:53;;;;;;;4.03;2.97;;;19.50;91.20;;;;;;10419775;28;20591;-81
2022/09/09 21:17:55;;;;;;;2.70;2.60;;;19.50;91.30;;;;;;10416727;28;20669;-82
2022/09/09 21:22:59;;;;;;;2.70;2.50;;;19.50;90.10;;;;;;10429874;28;20708;-81
2022/09/09 21:28:01;;;;;;;3.07;2.87;;;19.50;91.20;;;;;;10418734;28;20254;-81
2022/09/09 21:33:04;;;;;;;2.70;2.50;;;19.50;90.90;;;;;;10407581;28;20281;-81
2022/09/09 21:38:13;;;;;;;2.87;2.63;;;19.40;91.30;;;;;;10400570;28;20217;-82
2022/09/09 21:43:17;;;;;;;2.90;2.70;;;19.40;91.40;;;;;;10416787;28;20664;-81
2022/09/09 21:48:19;;;;;;;3.70;3.33;;;19.30;91.60;;;;;;10415566;28;20224;-81
2022/09/09 21:53:23;;;;;;;2.93;2.73;;;19.30;91.50;;;;;;10416766;28;20214;-81
2022/09/09 21:58:26;;;;;;;2.57;2.37;;;19.20;91.40;;;;;;10421045;28;20218;-81
2022/09/09 22:03:28;;;;;;;2.50;2.30;;;19.20;91.00;;;;;;10420361;28;20248;-81
2022/09/09 22:08:32;;;;;;;3.13;2.80;;;19.20;92.00;;;;;;10421404;28;20236;-81
2022/09/09 22:13:34;;;;;;;5.73;5.20;;;19.10;91.90;;;;;;10432301;28;20260;-81
2022/09/09 22:18:37;;;;;;;3.47;3.27;;;19.10;91.90;;;;;;10429160;28;20229;-81
2022/09/09 22:23:40;;;;;;;2.53;2.40;;;19.10;91.60;;;;;;10416111;28;20193;-81
2022/09/09 22:28:42;;;;;;;2.50;2.30;;;19.20;92.10;;;;;;10418015;28;20237;-80
2022/09/09 22:33:44;;;;;;;2.73;2.63;;;19.20;91.70;;;;;;10423542;28;20219;-80
2022/09/09 22:38:48;;;;;;;2.60;2.40;;;19.30;92.00;;;;;;10403446;28;20701;-81
2022/09/09 22:43:50;;;;;;;4.53;2.33;;;19.30;91.90;;;;;;10403904;28;20635;-80
2022/09/09 22:48:52;;;;;;;3.07;2.87;;;19.40;91.70;;;;;;10384952;28;20219;-81
2022/09/09 22:53:56;;;;;;;3.53;3.33;;;19.40;91.70;;;;;;10390979;28;20784;-81
2022/09/09 22:58:58;;;;;;;2.73;2.53;;;19.40;91.70;;;;;;10409199;28;20222;-81
2022/09/09 23:04:01;;;;;;;2.60;2.40;;;19.40;91.80;;;;;;10397878;28;20198;-81
2022/09/09 23:09:04;;;;;;;2.50;2.40;;;19.40;92.10;;;;;;10407069;28;20231;-81
2022/09/09 23:14:10;;;;;;;2.77;2.57;;;19.50;92.50;;;;;;10377858;28;20351;-81
2022/09/09 23:19:15;;;;;;;3.30;2.40;;;19.50;92.70;;;;;;10425502;28;20221;-80
2022/09/09 23:30:01;;;;;;;4.13;3.83;;;19.40;96.00;;;;;;11938644;23;20243;-80
2022/09/09 23:35:10;;;;;;;5.37;4.27;;;19.10;98.00;;;;;;10490997;22;20256;-81
2022/09/09 23:40:12;;;;;;;5.27;4.87;;;18.80;99.00;;;;;;10332605;28;20238;-80
2022/09/09 23:56:51;;;;;;;8.50;8.20;;;17.90;99.90;;;;;;10326071;28;20212;-81
